Flight Track Log - Related Links

Times and Time Zones

All times are in EDT time to prevent confusion due to time zone crossing. See the DAL1361 flight status page for this flight to view local times or setup timezone preferences in your user account.

Time Position Orientation Groundspeed Altitude Reporting Facility
EDT Latitude Longitude Course Direction KTS MPH feet Rate Location/Type
Wed 09:28:22 PM 44.9000 -93.2500 180° South 162 186 2,300  Level Minneapolis TRACON
Wed 09:29:10 PM 44.8833 -93.3000 245° Southwest 208 239 3,700 2,778 Climbing Minneapolis TRACON
Wed 09:30:10 PM 44.8667 -93.3833 254° West 264 304 7,300 3,179 Climbing Minneapolis TRACON
Wed 09:31:00 PM 44.5443 -92.9432 157° South  Level Estimated
Wed 09:31:24 PM 44.7883 -93.4286 202° Southwest 279 321 10,800  Level Minneapolis Center
Wed 09:32:00 PM 44.4316 -92.8510 152° Southeast  Level Estimated
Wed 09:32:26 PM 44.6811 -93.4303 181° South 363 418 13,000  Level Minneapolis Center
Wed 09:33:00 PM 44.3188 -92.7592 180° South  Level Estimated
Wed 09:33:28 PM 44.6011 -93.3275 138° Southeast 397 457 15,700  Level Minneapolis Center
Wed 09:34:30 PM 44.5075 -93.2153 139° Southeast 411 473 18,600 2,341 Climbing Minneapolis Center
Wed 09:35:31 PM 44.4250 -93.1186 140° Southeast 422 486 20,500 1,805 Climbing Minneapolis Center
Wed 09:36:33 PM 44.3286 -93.0067 140° Southeast 447 514 22,300 1,790 Climbing Minneapolis Center
Wed 09:37:35 PM 44.1992 -92.8822 145° Southeast 472 543 24,200 1,805 Climbing Minneapolis Center
Wed 09:38:36 PM 44.0769 -92.8003 154° Southeast 485 558 26,000 1,659 Climbing Minneapolis Center
Wed 09:39:38 PM 43.9517 -92.7158 154° Southeast 495 570 27,600 1,645 Climbing Minneapolis Center
Wed 09:40:40 PM 43.8250 -92.6275 153° Southeast 506 582 29,400 1,659 Climbing Minneapolis Center
Wed 09:41:41 PM 43.6831 -92.5792 166° South 496 571 31,000 1,463 Climbing Minneapolis Center
Wed 09:42:43 PM 43.5461 -92.5589 174° South 499 574 32,400 1,415 Climbing Minneapolis Center
Wed 09:43:44 PM 43.4089 -92.5369 173° South 499 574 33,900 1,268 Climbing Minneapolis Center
Wed 09:44:46 PM 43.2758 -92.5150 173° South 492 566 35,000 537 Climbing Minneapolis Center
Wed 09:45:47 PM 43.1183 -92.4900 173° South 484 557 35,000  Level Minneapolis Center
Wed 09:46:19 PM 43.0650 -92.4800 172° South 479 551 35,000  Level Chicago Center
Wed 09:47:20 PM 42.9314 -92.4575 173° South 487 560 35,000  Level Chicago Center
Wed 09:47:50 PM 42.8525 -92.4456 174° South 484 557 35,000  Level Minneapolis Center
Wed 09:48:22 PM 42.7717 -92.4308 172° South 489 563 35,000  Level Chicago Center
Wed 09:49:23 PM 42.6375 -92.4081 173° South 491 565 35,000  Level Chicago Center
Wed 09:50:25 PM 42.5044 -92.3761 170° South 495 570 35,000  Level Chicago Center
Wed 09:51:26 PM 42.3742 -92.3203 162° South 498 573 35,000  Level Chicago Center
Wed 09:52:28 PM 42.2439 -92.2639 162° South 498 573 35,000  Level Chicago Center
Wed 09:53:30 PM 42.1136 -92.2089 163° South 496 571 35,000  Level Chicago Center
Wed 09:54:31 PM 41.9578 -92.1419 162° South 495 570 35,000  Level Chicago Center
Wed 09:55:33 PM 41.8269 -92.0869 163° South 495 570 35,000  Level Chicago Center
Wed 09:56:34 PM 41.6981 -92.0336 163° South 490 564 35,000  Level Chicago Center
Wed 09:57:36 PM 41.5686 -91.9778 162° South 492 566 35,000  Level Chicago Center
Wed 09:58:37 PM 41.4408 -91.9261 163° South 487 560 35,000  Level Chicago Center
Wed 09:59:38 PM 41.3114 -91.8728 163° South 488 562 35,000  Level Chicago Center
Wed 10:00:40 PM 41.1694 -91.8147 163° South 488 562 35,000  Level Chicago Center
Wed 10:01:41 PM 41.0406 -91.7611 163° South 488 562 35,000  Level Chicago Center
Wed 10:02:43 PM 40.9117 -91.7086 163° South 485 558 35,000  Level Chicago Center
Wed 10:03:45 PM 40.7814 -91.6550 163° South 489 563 35,000  Level Chicago Center
Wed 10:04:46 PM 40.6306 -91.5669 156° South 499 574 35,000  Level Chicago Center
Wed 10:05:47 PM 40.5111 -91.4639 147° Southeast 512 589 35,000  Level Chicago Center
Wed 10:06:42 PM 40.4144 -91.3811 147° Southeast 515 593 35,000  Level Kansas City Center
Wed 10:07:44 PM 40.2864 -91.2736 147° Southeast 504 580 35,000  Level Kansas City Center
Wed 10:08:44 PM 40.1833 -91.1875 147° Southeast 498 573 35,000  Level Kansas City Center
Wed 10:09:47 PM 40.0692 -91.0908 147° Southeast 495 570 35,000  Level Kansas City Center
Wed 10:10:49 PM 39.9356 -90.9806 148° Southeast 481 554 35,000  Level Kansas City Center
Wed 10:11:49 PM 39.8339 -90.8992 148° Southeast 479 551 35,000  Level Kansas City Center
Wed 10:12:49 PM 39.7211 -90.8083 148° Southeast 479 551 35,000  Level Kansas City Center
Wed 10:13:53 PM 39.6089 -90.7181 148° Southeast 479 551 35,000  Level Kansas City Center
Wed 10:14:52 PM 39.4711 -90.6078 148° Southeast 479 551 35,000  Level Kansas City Center
Wed 10:15:56 PM 39.3556 -90.5167 149° Southeast 482 555 35,000  Level Kansas City Center
Wed 10:16:56 PM 39.2386 -90.4233 148° Southeast 490 564 35,000  Level Kansas City Center
Wed 10:17:57 PM 39.1214 -90.3297 148° Southeast 490 564 35,000  Level Kansas City Center
Wed 10:18:59 PM 39.0042 -90.2375 149° Southeast 491 565 35,000  Level Kansas City Center
Wed 10:20:03 PM 38.8917 -90.1492 149° Southeast 491 565 35,000  Level Kansas City Center
Wed 10:21:04 PM 38.7747 -90.0575 149° Southeast 491 565 35,000  Level Kansas City Center
Wed 10:22:05 PM 38.6497 -89.9606 149° Southeast 491 565 35,000  Level Kansas City Center
Wed 10:23:05 PM 38.5328 -89.8700 149° Southeast 490 564 35,000  Level Kansas City Center
Wed 10:24:06 PM 38.4172 -89.7803 149° Southeast 490 564 35,000  Level Kansas City Center
Wed 10:25:08 PM 38.3047 -89.6903 148° Southeast 480 552 35,000  Level Kansas City Center
Wed 10:26:09 PM 38.1889 -89.6042 150° Southeast 481 554 35,000  Level Kansas City Center
Wed 10:27:11 PM 38.0522 -89.4994 149° Southeast 480 552 35,000  Level Kansas City Center
Wed 10:28:11 PM 37.9369 -89.4119 149° Southeast 480 552 35,000  Level Kansas City Center
Wed 10:29:12 PM 37.8219 -89.3256 149° Southeast 482 555 35,000  Level Kansas City Center
Wed 10:30:16 PM 37.7144 -89.2394 148° Southeast 481 554 35,000  Level Kansas City Center
Wed 10:31:18 PM 37.5981 -89.1544 150° Southeast 481 554 35,000  Level Kansas City Center
Wed 10:32:18 PM 37.4581 -89.0517 150° Southeast 482 555 35,000  Level Kansas City Center
Wed 10:33:18 PM 37.3422 -88.9672 150° Southeast 481 554 35,000  Level Kansas City Center
Wed 10:33:53 PM 37.2728 -88.9156 149° Southeast 483 556 35,000  Level Memphis Center
Wed 10:34:54 PM 37.1575 -88.8292 149° Southeast 483 556 35,000  Level Memphis Center
Wed 10:35:55 PM 37.0406 -88.7428 149° Southeast 483 556 35,000  Level Memphis Center
Wed 10:36:56 PM 36.9261 -88.6567 149° Southeast 483 556 35,000  Level Memphis Center
Wed 10:37:57 PM 36.8108 -88.5731 150° Southeast 481 554 35,000  Level Memphis Center
Wed 10:38:59 PM 36.6953 -88.4889 150° Southeast 480 552 35,000  Level Memphis Center
Wed 10:40:00 PM 36.5814 -88.4047 149° Southeast 478 550 35,000  Level Memphis Center
Wed 10:41:01 PM 36.4681 -88.3228 150° Southeast 473 544 35,000  Level Memphis Center
Wed 10:42:02 PM 36.3556 -88.2414 150° Southeast 471 542 35,000  Level Memphis Center
Wed 10:43:03 PM 36.2422 -88.1611 150° Southeast 470 541 35,000  Level Memphis Center
Wed 10:44:04 PM 36.1300 -88.0800 150° Southeast 470 541 35,000  Level Memphis Center
Wed 10:45:05 PM 36.0172 -88.0000 150° Southeast 468 539 35,000  Level Memphis Center
Wed 10:46:06 PM 35.9031 -87.9181 150° Southeast 468 539 35,000  Level Memphis Center
Wed 10:47:07 PM 35.7897 -87.8381 150° Southeast 468 539 35,000  Level Memphis Center
Wed 10:48:09 PM 35.6575 -87.7444 150° Southeast 468 539 35,000  Level Memphis Center
Wed 10:49:10 PM 35.5428 -87.6633 150° Southeast 468 539 35,000  Level Memphis Center
Wed 10:50:11 PM 35.4283 -87.5833 150° Southeast 469 540 35,000  Level Memphis Center
Wed 10:51:12 PM 35.3247 -87.5097 150° Southeast 469 540 35,000  Level Memphis Center
Wed 10:52:13 PM 35.2086 -87.4281 150° Southeast 473 544 35,000  Level Memphis Center
Wed 10:53:14 PM 35.0933 -87.3467 150° Southeast 477 549 35,000  Level Memphis Center
Wed 10:54:15 PM 34.9778 -87.2661 150° Southeast 477 549 35,000  Level Memphis Center
Wed 10:55:16 PM 34.8628 -87.1856 150° Southeast 477 549 35,000  Level Memphis Center
Wed 10:56:18 PM 34.7211 -87.0892 151° Southeast 479 551 35,000  Level Memphis Center
Wed 10:57:19 PM 34.6025 -87.0061 150° Southeast 483 556 35,000  Level Memphis Center
Wed 10:57:58 PM 34.5278 -86.9508 149° Southeast 482 555 35,000  Level Atlanta Center
Wed 10:58:58 PM 34.4086 -86.8739 152° Southeast 482 555 35,000  Level Atlanta Center
Wed 10:59:58 PM 34.2914 -86.7919 150° Southeast 482 555 35,000  Level Atlanta Center
Wed 11:00:58 PM 34.1764 -86.7153 151° Southeast 482 555 35,000  Level Atlanta Center
Wed 11:01:58 PM 34.0592 -86.6339 150° Southeast 482 555 35,000  Level Atlanta Center
Wed 11:02:58 PM 33.9417 -86.5553 151° Southeast 482 555 35,000  Level Atlanta Center
Wed 11:03:58 PM 33.8222 -86.4792 152° Southeast 482 555 35,000  Level Atlanta Center
Wed 11:04:58 PM 33.7050 -86.3986 150° Southeast 482 555 35,000  Level Atlanta Center
Wed 11:05:58 PM 33.5875 -86.3206 151° Southeast 482 555 35,000  Level Atlanta Center
Wed 11:06:58 PM 33.4864 -86.2506 150° Southeast 476 548 35,000  Level Atlanta Center
Wed 11:07:58 PM 33.3647 -86.1703 151° Southeast 476 548 35,000  Level Atlanta Center
Wed 11:08:58 PM 33.2492 -86.0881 149° Southeast 511 588 35,000  Level Atlanta Center
Wed 11:09:58 PM 33.1294 -86.0133 152° Southeast 478 550 35,000  Level Atlanta Center
Wed 11:10:58 PM 33.0136 -85.9364 151° Southeast 478 550 35,000  Level Atlanta Center
Wed 11:11:58 PM 32.8856 -85.8519 151° Southeast 478 550 35,000  Level Atlanta Center
Wed 11:12:58 PM 32.7656 -85.7756 152° Southeast 473 544 35,000  Level Atlanta Center
Wed 11:13:58 PM 32.6436 -85.6942 151° Southeast 484 557 35,000  Level Atlanta Center
Wed 11:14:58 PM 32.5256 -85.6181 151° Southeast 484 557 35,000  Level Atlanta Center
Wed 11:15:58 PM 32.4075 -85.5419 151° Southeast 489 563 35,000  Level Atlanta Center
Wed 11:17:50 PM 32.1897 -85.4039 152° Southeast 492 566 35,000  Level Jacksonville Center
Wed 11:18:50 PM 32.0681 -85.3244 151° Southeast 492 566 35,000  Level Jacksonville Center
Wed 11:19:50 PM 31.9483 -85.2481 152° Southeast 492 566 35,000  Level Jacksonville Center
Wed 11:20:50 PM 31.8244 -85.1714 152° Southeast 492 566 35,000  Level Jacksonville Center
Wed 11:21:50 PM 31.7069 -85.0978 152° Southeast 486 559 35,000  Level Jacksonville Center
Wed 11:22:50 PM 31.5850 -85.0217 152° Southeast 486 559 35,000  Level Jacksonville Center
Wed 11:23:50 PM 31.4631 -84.9506 154° Southeast 486 559 35,000  Level Jacksonville Center
Wed 11:24:50 PM 31.3389 -84.8775 153° Southeast 486 559 35,000  Level Jacksonville Center
Wed 11:25:50 PM 31.2167 -84.8067 154° Southeast 486 559 35,000  Level Jacksonville Center
Wed 11:26:50 PM 31.0925 -84.7339 153° Southeast 486 559 35,000  Level Jacksonville Center
Wed 11:27:50 PM 30.9725 -84.6614 153° Southeast 486 559 35,000  Level Jacksonville Center
Wed 11:28:50 PM 30.8442 -84.5864 153° Southeast 491 565 35,000  Level Jacksonville Center
Wed 11:29:50 PM 30.7217 -84.5142 153° Southeast 496 571 35,000  Level Jacksonville Center
Wed 11:30:50 PM 30.5953 -84.4419 154° Southeast 496 571 35,000  Level Jacksonville Center
Wed 11:31:50 PM 30.4647 -84.3578 151° Southeast 501 577 35,000  Level Jacksonville Center
Wed 11:32:50 PM 30.3469 -84.2647 146° Southeast 506 582 35,000  Level Jacksonville Center
Wed 11:33:50 PM 30.2225 -84.1883 152° Southeast 506 582 35,000  Level Jacksonville Center
Wed 11:34:50 PM 30.0958 -84.1169 154° Southeast 501 577 35,000  Level Jacksonville Center
Wed 11:35:50 PM 29.9689 -84.0483 155° Southeast 501 577 35,000  Level Jacksonville Center
Wed 11:36:50 PM 29.8403 -83.9772 154° Southeast 506 582 35,000  Level Jacksonville Center
Wed 11:37:50 PM 29.7133 -83.9089 155° Southeast 506 582 35,000  Level Jacksonville Center
Wed 11:38:50 PM 29.5886 -83.8408 155° Southeast 506 582 35,000  Level Jacksonville Center
Wed 11:39:50 PM 29.4619 -83.7703 154° Southeast 506 582 35,000 -200 Level Jacksonville Center
Wed 11:40:50 PM 29.3369 -83.7025 155° Southeast 506 582 34,600 -750 Descending Jacksonville Center
Wed 11:41:50 PM 29.2122 -83.6347 155° Southeast 501 577 33,500 -1,250 Descending Jacksonville Center
Wed 11:42:50 PM 29.0831 -83.5650 155° Southeast 501 577 32,100 -1,250 Descending Jacksonville Center
Wed 11:43:50 PM 28.9561 -83.4953 154° Southeast 501 577 31,000 -1,150 Descending Jacksonville Center
Wed 11:44:50 PM 28.8292 -83.4258 154° Southeast 506 582 29,800 -1,132 Descending Jacksonville Center
Wed 11:47:22 PM 28.5289 -83.2653 155° Southeast 501 577 27,000 -804 Descending Miami Center
Wed 11:48:19 PM 28.4022 -83.2039 157° South 501 577 27,000  Level Miami Center
Wed 11:49:20 PM 28.2822 -83.1358 153° Southeast 496 571 27,000  Level Miami Center
Wed 11:50:20 PM 28.1600 -83.0725 155° Southeast 491 565 27,000  Level Miami Center
Wed 11:51:22 PM 28.0353 -83.0094 156° South 491 565 27,000  Level Miami Center
Wed 11:52:19 PM 27.9125 -82.9558 159° South 486 559 27,000  Level Miami Center
Wed 11:53:19 PM 27.8078 -82.8656 143° Southeast 486 559 27,000 -984 Level Miami Center
Wed 11:54:21 PM 27.6972 -82.7636 141° Southeast 500 575 25,000 -2,459 Descending Miami Center
Wed 11:55:21 PM 27.5828 -82.6547 140° Southeast 495 570 22,000 -2,542 Descending Miami Center
Wed 11:56:19 PM 27.4864 -82.5633 140° Southeast 471 542 20,000 -2,017 Descending Miami Center
Wed 11:57:20 PM 27.4103 -82.4800 136° Southeast 444 511 18,000 -2,164 Descending Miami Center
Wed 11:58:21 PM 27.3264 -82.3872 135° Southeast 428 493 15,600 -2,370 Descending Miami Center
Wed 11:59:19 PM 27.2372 -82.3175 145° Southeast 415 478 13,300 -2,200 Descending Miami Center
Thu 12:00:21 AM 27.1336 -82.2917 167° South 388 447 11,200 -1,171 Descending Miami Center
Thu 12:01:22 AM 27.0344 -82.2661 167° South 376 433 10,900 -99 Descending Miami Center
Thu 12:02:22 AM 26.9231 -82.2331 165° South 376 433 11,000 -50 Climbing Miami Center
Thu 12:03:21 AM 26.8425 -82.2131 168° South 353 406 10,800 -750 Descending Miami Center
Thu 12:04:22 AM 26.7619 -82.1908 166° South 317 365 9,500 -1,563 Descending Miami Center
Thu 12:05:20 AM 26.6853 -82.1708 167° South 290 334 7,700 -1,678 Descending Miami Center
Thu 12:06:20 AM 26.6089 -82.1514 167° South 282 325 6,200 -1,289 Descending Miami Center
Thu 12:07:21 AM 26.5478 -82.1067 147° Southeast 268 308 5,100 -1,150 Descending Miami Center
Thu 12:08:20 AM 26.5106 -82.0356 120° Southeast 259 298 3,900 -1,059 Descending Miami Center
Thu 12:09:20 AM 26.4864 -81.9533 108° East 254 292 3,000 -694 Descending Miami Center
Thu 12:10:21 AM 26.4697 -81.8922 107° East 223 257 2,500 -655 Descending Miami Center
Thu 12:11:19 AM 26.4636 -81.8317 96° East 192 221 1,700 254 Descending Miami Center
Thu 12:12:19 AM 26.4550 -81.7733 99° East 192 221 3,000 639 Climbing Miami Center
Thu 12:13:21 AM 26.4467 -81.7150 99° East 192 221 3,000  Level Miami Center
Thu 12:14:21 AM 26.4397 -81.6683 99° East 192 221 3,000  Level Miami Center

Login

Don't have an account? Register now (free) for customized features, flight alerts, and more!